Johnston, South Carolina
Current Conditions -  °F | °C
As of 12:55 AM on Sunday 23 Nov 2014 (Local Time) from KAIK Reporting Station
Drizzle Drizzle  
Wind Chill: 45°   Ceiling: 9000
Heat Index: 48°   Visibility: 10mi
Dew Point: 48°   Wind: 7mph
Humidity: 100%   Direction: 80°E
Pressure: 30.25"   Gusts: NA
Location:  33.83°N, 81.8°W
Report Text: KAIK 230555Z AUTO 08006KT 10SM -DZ SCT065 OVC090 09/09 A3025 RMK AO2 PNO
Loading
Personal Weather Stations






























Interactive Weather Map New forecast layout! Learn more

10-Day Weather Forecast

Advertisements
Track Severe Weather on mobile